Time;durP1;ratioP1;P1;durP2;ratioP2;P2;SDS_P1;SDS_P2;PMS_P1;PMS_P2;Temp;Humidity;BMP_temperature;BMP_pressure;BME280_temperature;BME280_humidity;BME280_pressure;Samples;Min_cycle;Max_cycle;Signal;HPM_P1;HPM_P2
2022/12/20 00:00:26;;;;;;;5.18;4.30;;;;;;;7.57;100.00;101232.69;1026761;28;20693;-73
2022/12/20 00:00:57;;;;;;;3.28;2.90;;;;;;;7.54;100.00;101238.34;1025412;28;20294;-79
2022/12/20 00:01:31;;;;;;;6.32;3.63;;;;;;;7.54;100.00;101242.84;1027464;28;20309;-79
2022/12/20 00:02:03;;;;;;;4.40;3.67;;;;;;;7.55;100.00;101234.69;1024278;29;20294;-79
2022/12/20 00:02:35;;;;;;;3.13;2.55;;;;;;;7.50;100.00;101237.09;1024569;28;20299;-79
2022/12/20 00:03:07;;;;;;;4.65;2.90;;;;;;;7.52;100.00;101243.03;1020298;28;20306;-79
2022/12/20 00:03:39;;;;;;;3.67;2.67;;;;;;;7.45;100.00;101239.47;1024987;28;20484;-80
2022/12/20 00:04:11;;;;;;;3.47;2.90;;;;;;;7.44;100.00;101237.84;1020543;29;20314;-79
2022/12/20 00:04:43;;;;;;;6.13;2.70;;;;;;;7.46;100.00;101243.78;1017098;29;20303;-79
2022/12/20 00:05:14;;;;;;;3.90;3.47;;;;;;;7.53;100.00;101239.38;1019756;29;20306;-80
2022/12/20 00:05:47;;;;;;;5.18;3.58;;;;;;;7.62;100.00;101240.88;1017529;29;20300;-79
2022/12/20 00:06:20;;;;;;;3.00;2.67;;;;;;;7.57;100.00;101243.28;1021282;29;20306;-79
2022/12/20 00:06:52;;;;;;;3.20;2.72;;;;;;;7.62;100.00;101240.88;1024308;28;20299;-80
2022/12/20 00:07:23;;;;;;;5.78;3.28;;;;;;;7.59;100.00;101246.56;1024575;28;20302;-79
2022/12/20 00:07:55;;;;;;;4.47;3.42;;;;;;;7.59;100.00;101246.56;1021441;29;20655;-79
2022/12/20 00:08:29;;;;;;;6.28;4.18;;;;;;;7.59;100.00;101238.63;1023380;29;20999;-79
2022/12/20 00:09:02;;;;;;;4.40;3.22;;;;;;;7.58;100.00;101250.22;1020282;29;20318;-79
2022/12/20 00:09:33;;;;;;;4.78;3.17;;;;;;;7.60;100.00;101248.22;1017483;29;20312;-79
2022/12/20 00:10:06;;;;;;;3.45;3.15;;;;;;;7.65;100.00;101235.22;1020828;29;20303;-79
2022/12/20 00:10:39;;;;;;;3.88;3.10;;;;;;;7.72;100.00;101235.31;1025680;28;20325;-79
2022/12/20 00:11:11;;;;;;;7.05;3.65;;;;;;;7.65;100.00;101235.22;1025344;28;20294;-79
2022/12/20 00:11:42;;;;;;;3.47;2.95;;;;;;;7.60;100.00;101245.56;1024278;28;20330;-79
2022/12/20 00:12:14;;;;;;;3.75;3.00;;;;;;;7.60;100.00;101244.75;1019671;29;20317;-79
2022/12/20 00:12:45;;;;;;;3.78;3.13;;;;;;;7.64;100.00;101238.88;1016911;29;20819;-78
2022/12/20 00:13:17;;;;;;;2.97;2.58;;;;;;;7.65;100.00;101240.50;1017094;29;20300;-79
2022/12/20 00:13:48;;;;;;;3.90;3.50;;;;;;;7.60;100.00;101248.22;1016867;29;20307;-79
2022/12/20 00:14:20;;;;;;;3.53;3.15;;;;;;;7.60;100.00;101253.50;1016587;29;20671;-79
2022/12/20 00:14:52;;;;;;;3.80;2.95;;;;;;;7.62;100.00;101251.50;1017871;29;20775;-79
2022/12/20 00:15:23;;;;;;;5.95;2.80;;;;;;;7.64;100.00;101238.88;1019385;29;20695;-79
2022/12/20 00:16:13;;;;;;;4.75;2.70;;;;;;;7.70;100.00;101235.50;1021096;29;20303;-79
2022/12/20 00:16:45;;;;;;;3.33;2.78;;;;;;;7.71;100.00;101245.09;1027970;28;20305;-79
2022/12/20 00:17:16;;;;;;;3.40;2.90;;;;;;;7.73;100.00;101244.91;1031438;28;20292;-79
2022/12/20 00:17:48;;;;;;;4.95;3.58;;;;;;;7.71;100.00;101245.09;1032366;28;20301;-79
2022/12/20 00:18:20;;;;;;;5.15;3.47;;;;;;;7.80;100.00;101234.34;1032749;28;20297;-78
2022/12/20 00:18:53;;;;;;;2.95;2.65;;;;;;;7.76;100.00;101228.63;1029098;28;20294;-73
2022/12/20 00:19:25;;;;;;;3.30;3.00;;;;;;;7.80;100.00;101237.00;1028472;28;20337;-73
2022/12/20 00:19:57;;;;;;;3.95;3.53;;;;;;;7.87;100.00;101237.88;1027751;28;20306;-74
2022/12/20 00:20:29;;;;;;;3.80;3.13;;;;;;;7.91;100.00;101225.88;1028158;28;20685;-74
2022/12/20 00:21:02;;;;;;;5.65;3.05;;;;;;;7.80;100.00;101237.00;1029469;28;20341;-79
2022/12/20 00:21:35;;;;;;;4.22;2.72;;;;;;;7.80;100.00;101231.72;1025179;29;20310;-74
2022/12/20 00:22:06;;;;;;;4.63;3.25;;;;;;;7.79;100.00;101232.72;1020227;29;20354;-73
2022/12/20 00:22:38;;;;;;;4.05;3.15;;;;;;;7.78;100.00;101229.25;1020326;29;20636;-73
2022/12/20 00:23:12;;;;;;;3.63;2.83;;;;;;;7.81;100.00;101231.50;1020662;29;20299;-74
2022/12/20 00:23:44;;;;;;;4.00;3.05;;;;;;;7.82;100.00;101219.06;1026114;28;20721;-79
2022/12/20 00:24:15;;;;;;;4.78;3.42;;;;;;;7.77;100.00;101221.47;1028101;28;20306;-81
2022/12/20 00:24:56;;;;;;;3.33;2.72;;;;;;;7.80;100.00;101221.09;1024342;28;20675;-73
2022/12/20 00:25:28;;;;;;;4.32;2.67;;;;;;;7.79;100.00;101217.63;1024282;28;20073;-73
2022/12/20 00:26:01;;;;;;;6.75;2.53;;;;;;;7.74;100.00;101218.19;1018760;29;20299;-74
2022/12/20 00:26:34;;;;;;;4.38;3.28;;;;;;;7.71;100.00;101220.41;1018569;29;20296;-73
2022/12/20 00:27:05;;;;;;;6.20;2.70;;;;;;;7.71;100.00;101215.94;1020145;29;20310;-73
2022/12/20 00:27:37;;;;;;;3.85;3.33;;;;;;;7.74;100.00;101212.91;1020958;28;20322;-73
2022/12/20 00:28:08;;;;;;;6.85;4.18;;;;;;;7.74;100.00;101212.91;1020840;29;20295;-74
2022/12/20 00:28:41;;;;;;;4.78;2.70;;;;;;;7.71;100.00;101210.63;1024365;28;20305;-73
2022/12/20 00:29:13;;;;;;;5.07;3.42;;;;;;;7.70;100.00;101205.50;1028296;28;20722;-74
2022/12/20 00:29:45;;;;;;;4.13;2.70;;;;;;;7.77;100.00;101208.22;1028790;28;20294;-73
2022/12/20 00:30:17;;;;;;;2.63;2.42;;;;;;;7.80;100.00;101211.31;1028446;28;20290;-73
2022/12/20 00:30:53;;;;;;;7.90;3.20;;;;;;;7.83;100.00;101200.31;1023342;28;20306;-73
2022/12/20 00:31:26;;;;;;;2.92;2.55;;;;;;;7.80;100.00;101205.19;1015779;29;20380;-79
2022/12/20 00:31:58;;;;;;;7.65;3.22;;;;;;;7.88;100.00;101205.88;1013841;29;20309;-79
2022/12/20 00:32:30;;;;;;;5.35;3.15;;;;;;;7.88;100.00;101207.72;1016001;29;20325;-79
2022/12/20 00:33:02;;;;;;;3.60;2.88;;;;;;;7.87;100.00;101203.41;1020876;28;20310;-79
2022/12/20 00:33:38;;;;;;;4.00;2.67;;;;;;;7.82;100.00;101203.97;1023864;28;20307;-79
2022/12/20 00:34:12;;;;;;;3.22;2.92;;;;;;;7.83;100.00;101204.81;1019804;29;20329;-79
2022/12/20 00:34:43;;;;;;;2.95;2.50;;;;;;;7.84;100.00;101212.56;1019877;29;20315;-79
2022/12/20 00:35:15;;;;;;;3.42;3.00;;;;;;;7.78;100.00;101201.91;1015902;29;20359;-79
2022/12/20 00:35:49;;;;;;;3.33;2.03;;;;;;;7.86;100.00;101204.44;1016570;29;20791;-77
2022/12/20 00:36:23;;;;;;;6.22;2.75;;;;;;;7.83;100.00;101210.09;1024256;28;20373;-72
2022/12/20 00:36:56;;;;;;;2.78;2.35;;;;;;;7.81;100.00;101204.19;1020599;29;20394;-73
2022/12/20 00:37:27;;;;;;;3.40;2.92;;;;;;;7.74;100.00;101212.91;1023986;28;20833;-73
2022/12/20 00:38:00;;;;;;;5.35;2.90;;;;;;;7.79;100.00;101208.84;1023446;29;20295;-73
2022/12/20 00:38:31;;;;;;;3.92;3.17;;;;;;;7.86;100.00;101217.69;1024242;28;20318;-73
2022/12/20 00:39:03;;;;;;;3.67;2.95;;;;;;;7.87;100.00;101216.69;1028733;28;20302;-77
2022/12/20 00:39:34;;;;;;;6.25;2.65;;;;;;;7.98;100.00;101209.06;1027555;28;20329;-80
2022/12/20 00:40:07;;;;;;;3.70;2.85;;;;;;;7.94;100.00;101217.56;1027612;28;20328;-80
2022/12/20 00:40:38;;;;;;;6.25;2.75;;;;;;;7.96;100.00;101215.56;1028811;28;20306;-79
2022/12/20 00:41:14;;;;;;;2.95;2.45;;;;;;;7.95;100.00;101219.22;1026132;28;20306;-79
2022/12/20 00:41:50;;;;;;;3.75;2.97;;;;;;;7.95;100.00;101213.91;1023806;28;21142;-77
2022/12/20 00:42:21;;;;;;;3.03;2.67;;;;;;;7.97;100.00;101214.53;1023849;28;20318;-79
2022/12/20 00:42:53;;;;;;;4.63;2.75;;;;;;;7.91;100.00;101220.59;1024957;28;20341;-74
2022/12/20 00:43:24;;;;;;;2.80;2.60;;;;;;;7.99;100.00;101210.69;1024279;28;20673;-73
2022/12/20 00:43:56;;;;;;;4.80;3.10;;;;;;;7.99;100.00;101208.03;1027604;28;20728;-73
2022/12/20 00:44:28;;;;;;;6.47;2.97;;;;;;;7.98;100.00;101218.84;1028798;28;20736;-74
2022/12/20 00:44:59;;;;;;;2.75;2.47;;;;;;;7.98;100.00;101214.34;1027483;28;20313;-73
2022/12/20 00:45:31;;;;;;;4.10;3.00;;;;;;;7.96;100.00;101216.38;1027418;28;20302;-73
2022/12/20 00:46:03;;;;;;;3.50;3.10;;;;;;;7.96;100.00;101215.56;1023164;28;20306;-73
2022/12/20 00:46:36;;;;;;;3.00;2.80;;;;;;;7.96;100.00;101211.06;1019643;29;20310;-74
2022/12/20 00:47:07;;;;;;;3.17;2.50;;;;;;;7.93;100.00;101210.59;1022512;29;20720;-73
2022/12/20 00:47:39;;;;;;;5.28;2.65;;;;;;;7.95;100.00;101221.88;1020483;29;20350;-73
2022/12/20 00:48:10;;;;;;;5.32;2.92;;;;;;;7.95;100.00;101216.56;1024241;28;20661;-73
2022/12/20 00:48:42;;;;;;;2.92;2.67;;;;;;;8.05;100.00;101209.91;1027095;28;20314;-73
2022/12/20 00:49:15;;;;;;;3.08;2.75;;;;;;;8.10;100.00;101209.34;1023795;28;20866;-73
2022/12/20 00:49:46;;;;;;;5.45;2.90;;;;;;;8.06;100.00;101202.78;1023489;29;20348;-73
2022/12/20 00:50:18;;;;;;;5.78;3.10;;;;;;;8.02;100.00;101204.19;1023270;29;20311;-73
2022/12/20 00:50:50;;;;;;;4.35;3.45;;;;;;;8.02;100.00;101206.84;1025025;28;20299;-73
2022/12/20 00:51:27;;;;;;;2.72;2.45;;;;;;;8.04;100.00;101202.16;1027193;28;20784;-73
2022/12/20 00:51:59;;;;;;;5.72;2.88;;;;;;;8.02;100.00;101204.19;1019470;29;20351;-73
2022/12/20 00:52:30;;;;;;;2.72;2.53;;;;;;;8.04;100.00;101208.28;1019627;29;20367;-73
2022/12/20 00:53:02;;;;;;;6.28;2.70;;;;;;;8.05;100.00;101203.81;1021212;29;20303;-73
2022/12/20 00:53:34;;;;;;;7.60;2.28;;;;;;;8.15;100.00;101200.81;1023438;28;20373;-73
2022/12/20 00:54:06;;;;;;;3.75;2.65;;;;;;;8.17;100.00;101204.91;1023500;29;20692;-73
2022/12/20 00:54:37;;;;;;;5.55;2.50;;;;;;;8.13;100.00;101203.66;1023784;29;20295;-73
2022/12/20 00:55:09;;;;;;;2.50;2.30;;;;;;;8.20;100.00;101209.84;1023617;29;20295;-73
2022/12/20 00:55:42;;;;;;;5.75;2.53;;;;;;;8.19;100.00;101200.22;1024114;28;20352;-73
2022/12/20 00:56:14;;;;;;;7.20;2.75;;;;;;;8.20;100.00;101196.56;1027813;28;20290;-73
2022/12/20 00:56:48;;;;;;;4.38;2.70;;;;;;;8.18;100.00;101206.56;1027806;28;20788;-74
2022/12/20 00:57:19;;;;;;;2.63;2.42;;;;;;;8.19;100.00;101200.22;1023283;29;20326;-74
2022/12/20 00:57:52;;;;;;;4.22;2.42;;;;;;;8.19;100.00;101197.56;1024754;28;20434;-73
2022/12/20 00:58:24;;;;;;;3.88;2.95;;;;;;;8.22;100.00;101199.06;1023858;28;20298;-73
2022/12/20 00:58:57;;;;;;;3.17;2.28;;;;;;;8.19;100.00;101200.22;1019559;29;20336;-73
2022/12/20 00:59:29;;;;;;;2.70;2.50;;;;;;;8.21;100.00;101202.69;1024710;28;20325;-73
2022/12/20 01:00:00;;;;;;;3.38;2.83;;;;;;;8.28;100.00;101199.09;1027709;28;20328;-73
2022/12/20 01:00:32;;;;;;;9.95;2.58;;;;;;;8.29;100.00;101199.91;1027958;28;20392;-73
2022/12/20 01:01:18;;;;;;;3.50;2.60;;;;;;;8.36;100.00;101208.78;1026879;28;20400;-74
2022/12/20 01:01:51;;;;;;;4.25;2.50;;;;;;;8.37;100.00;101210.41;1023051;29;20313;-73
2022/12/20 01:02:24;;;;;;;2.92;2.67;;;;;;;8.40;100.00;101206.56;1023598;29;20302;-73
2022/12/20 01:02:56;;;;;;;3.53;2.63;;;;;;;8.40;100.00;101207.38;1021930;29;20365;-74
2022/12/20 01:03:28;;;;;;;3.47;2.30;;;;;;;8.40;100.00;101206.56;1024739;28;20401;-73
2022/12/20 01:04:00;;;;;;;4.70;2.15;;;;;;;8.36;100.00;101196.31;1027604;28;20298;-73
2022/12/20 01:04:32;;;;;;;4.75;2.50;;;;;;;8.32;100.00;101197.69;1031838;28;20652;-74
2022/12/20 01:05:04;;;;;;;2.92;2.22;;;;;;;8.36;100.00;101200.81;1034198;28;20308;-73
2022/12/20 01:05:35;;;;;;;2.85;2.58;;;;;;;8.34;100.00;101202.84;1027406;28;20388;-73
2022/12/20 01:06:08;;;;;;;2.90;2.45;;;;;;;8.42;100.00;101210.66;1018827;29;20307;-73
2022/12/20 01:06:40;;;;;;;4.05;2.35;;;;;;;8.38;100.00;101203.28;1015946;29;20292;-74
2022/12/20 01:07:14;;;;;;;3.08;2.22;;;;;;;8.34;100.00;101206.31;1016733;29;21011;-73
2022/12/20 01:07:46;;;;;;;3.03;2.25;;;;;;;8.40;100.00;101214.53;1021274;28;20295;-73
2022/12/20 01:08:18;;;;;;;3.78;2.47;;;;;;;8.42;100.00;101208.00;1027827;28;20298;-73
2022/12/20 01:08:51;;;;;;;3.47;2.63;;;;;;;8.43;100.00;101206.16;1021366;28;20298;-74
2022/12/20 01:09:23;;;;;;;3.50;2.42;;;;;;;8.46;100.00;101205.78;1023395;28;20306;-73
2022/12/20 01:09:55;;;;;;;2.95;2.65;;;;;;;8.51;100.00;101206.03;1023580;28;20310;-73
2022/12/20 01:10:27;;;;;;;4.28;2.30;;;;;;;8.48;100.00;101201.91;1023559;28;20310;-73
2022/12/20 01:11:03;;;;;;;3.88;2.05;;;;;;;8.48;100.00;101203.75;1023294;28;20302;-73
2022/12/20 01:11:36;;;;;;;2.90;2.30;;;;;;;8.45;100.00;101206.78;1019155;29;20303;-73
2022/12/20 01:12:07;;;;;;;3.50;2.20;;;;;;;8.45;100.00;101206.78;1019487;29;20311;-73
2022/12/20 01:12:40;;;;;;;2.42;2.00;;;;;;;8.44;100.00;101202.50;1018134;29;20806;-79
2022/12/20 01:13:12;;;;;;;3.50;2.60;;;;;;;8.44;100.00;101207.81;1016389;29;20304;-79
2022/12/20 01:13:47;;;;;;;3.97;2.20;;;;;;;8.49;100.00;101205.38;1015678;29;20442;-80
2022/12/20 01:14:18;;;;;;;3.67;2.50;;;;;;;8.50;100.00;101212.38;1008905;29;20317;-80
2022/12/20 01:14:50;;;;;;;3.55;2.45;;;;;;;8.52;100.00;101199.72;1015658;29;20318;-80
2022/12/20 01:15:21;;;;;;;3.28;2.20;;;;;;;8.64;100.00;101204.28;1014990;29;20868;-80
2022/12/20 01:15:53;;;;;;;4.88;2.47;;;;;;;8.63;100.00;101212.44;1016359;29;20307;-80
2022/12/20 01:16:28;;;;;;;3.03;2.10;;;;;;;8.60;100.00;101204.88;1016308;29;20368;-73
2022/12/20 01:17:00;;;;;;;2.35;2.15;;;;;;;8.64;100.00;101214.09;1020294;29;20802;-74
2022/12/20 01:17:32;;;;;;;2.30;2.00;;;;;;;8.72;100.00;101200.66;1020728;29;20291;-73
2022/12/20 01:18:03;;;;;;;3.40;1.92;;;;;;;8.76;100.00;101201.06;1028428;28;20357;-73
2022/12/20 01:18:38;;;;;;;2.53;2.13;;;;;;;8.68;100.00;101204.72;1028198;28;20294;-75
2022/12/20 01:19:12;;;;;;;2.55;2.03;;;;;;;8.63;100.00;101202.66;1024359;28;20681;-79
2022/12/20 01:19:44;;;;;;;6.72;2.38;;;;;;;8.58;100.00;101212.22;1026021;28;20677;-79
2022/12/20 01:20:16;;;;;;;2.45;2.25;;;;;;;8.58;100.00;101209.56;1017052;29;20303;-80
2022/12/20 01:20:48;;;;;;;2.72;2.50;;;;;;;8.59;100.00;101203.22;1014890;29;20667;-80
2022/12/20 01:21:20;;;;;;;2.85;2.00;;;;;;;8.63;100.00;101204.47;1015457;29;20296;-79
2022/12/20 01:21:52;;;;;;;3.75;2.45;;;;;;;8.62;100.00;101205.50;1017155;29;20296;-80
2022/12/20 01:22:23;;;;;;;3.80;3.35;;;;;;;8.57;100.00;101210.56;1028038;28;20664;-80
2022/12/20 01:22:55;;;;;;;2.38;2.17;;;;;;;8.60;100.00;101199.56;1028007;28;20815;-74
2022/12/20 01:23:27;;;;;;;9.15;3.65;;;;;;;8.57;100.00;101207.91;1028097;28;20669;-73
2022/12/20 01:23:58;;;;;;;3.08;2.38;;;;;;;8.64;100.00;101204.28;1027146;28;20784;-74
2022/12/20 01:24:30;;;;;;;4.25;2.25;;;;;;;8.65;100.00;101202.44;1031616;28;20317;-74
2022/12/20 01:25:09;;;;;;;5.15;2.35;;;;;;;8.64;100.00;101204.28;1033659;28;20305;-73
2022/12/20 01:25:41;;;;;;;4.90;2.33;;;;;;;8.61;100.00;101204.69;1032517;28;20305;-78
2022/12/20 01:26:18;;;;;;;2.75;2.00;;;;;;;8.67;100.00;101201.25;1026331;28;21518;-74
2022/12/20 01:26:51;;;;;;;6.55;2.22;;;;;;;8.63;100.00;101199.16;1024155;28;20302;-79
2022/12/20 01:27:26;;;;;;;3.33;2.17;;;;;;;8.78;100.00;101199.91;1025162;28;20718;-80
2022/12/20 01:28:03;;;;;;;4.00;2.45;;;;;;;8.71;100.00;101199.00;1020279;29;20314;-74
2022/12/20 01:28:36;;;;;;;3.17;2.45;;;;;;;8.80;100.00;101203.16;1012486;29;20392;-75
2022/12/20 01:29:08;;;;;;;3.38;2.88;;;;;;;8.68;100.00;101191.44;1011789;29;20308;-79
2022/12/20 01:29:40;;;;;;;3.50;2.25;;;;;;;8.69;100.00;101198.38;1011461;29;20323;-80
2022/12/20 01:30:13;;;;;;;13.27;2.78;;;;;;;8.64;100.00;101193.66;1015570;29;20398;-80
2022/12/20 01:30:45;;;;;;;3.28;2.50;;;;;;;8.64;100.00;101187.53;1017718;29;20422;-74
2022/12/20 01:31:19;;;;;;;3.17;2.58;;;;;;;8.61;100.00;101190.56;1025752;28;20307;-73
2022/12/20 01:31:52;;;;;;;4.15;2.40;;;;;;;8.58;100.00;101188.31;1026075;28;20322;-74
2022/12/20 01:32:24;;;;;;;2.55;2.28;;;;;;;8.52;100.00;101195.22;1019266;29;20303;-74
2022/12/20 01:32:56;;;;;;;5.93;3.10;;;;;;;8.64;100.00;101192.84;1023229;29;20367;-73
2022/12/20 01:33:27;;;;;;;2.83;2.35;;;;;;;8.60;100.00;101194.25;1025040;28;20818;-73
2022/12/20 01:33:59;;;;;;;4.00;2.25;;;;;;;8.61;100.00;101194.06;1023621;28;20305;-74
2022/12/20 01:34:31;;;;;;;2.55;2.03;;;;;;;8.60;100.00;101191.59;1022052;29;21061;-74
2022/12/20 01:35:03;;;;;;;4.00;2.40;;;;;;;8.68;100.00;101194.91;1019272;29;20304;-74
2022/12/20 01:35:35;;;;;;;2.35;2.15;;;;;;;8.70;100.00;101194.72;1016148;29;20319;-73
2022/12/20 01:36:15;;;;;;;2.00;1.88;;;;;;;8.67;100.00;101192.44;1018793;29;20307;-80
2022/12/20 01:36:48;;;;;;;5.95;2.22;;;;;;;8.63;100.00;101191.19;1019642;29;20363;-73
2022/12/20 01:37:20;;;;;;;2.20;2.00;;;;;;;8.63;100.00;101185.91;1022035;28;20076;-74
2022/12/20 01:37:51;;;;;;;3.38;1.95;;;;;;;8.60;100.00;101191.59;1024213;28;20788;-79
2022/12/20 01:38:23;;;;;;;2.63;2.42;;;;;;;8.61;100.00;101185.28;1019230;29;20303;-79
2022/12/20 01:39:19;;;;;;;2.22;1.63;;;;;;;8.56;100.00;101191.16;1020257;29;20303;-80
2022/12/20 01:39:53;;;;;;;3.45;1.85;;;;;;;8.64;100.00;101190.19;1015776;29;20292;-74
2022/12/20 01:40:25;;;;;;;4.75;2.53;;;;;;;8.65;100.00;101205.09;1019340;29;20310;-74
2022/12/20 01:40:57;;;;;;;5.97;2.10;;;;;;;8.64;100.00;101203.47;1023123;28;20386;-73
2022/12/20 01:41:33;;;;;;;3.47;2.42;;;;;;;8.60;100.00;101211.00;1023588;28;20386;-74
2022/12/20 01:42:05;;;;;;;5.15;2.58;;;;;;;8.70;100.00;101205.34;1023549;28;20299;-74
2022/12/20 01:42:36;;;;;;;3.33;2.30;;;;;;;8.69;100.00;101198.38;1022561;29;20814;-74
2022/12/20 01:43:11;;;;;;;4.32;2.28;;;;;;;8.77;100.00;101184.16;1022984;29;20310;-74
2022/12/20 01:44:23;;;;;;;2.13;1.92;;;;;;;8.81;100.00;101193.38;1020555;29;20311;-74
2022/12/20 01:44:58;;;;;;;4.15;2.20;;;;;;;8.80;100.00;101189.88;1014318;29;20296;-73
2022/12/20 01:45:30;;;;;;;2.55;2.30;;;;;;;8.73;100.00;101191.66;1014365;29;20359;-74
2022/12/20 01:46:01;;;;;;;3.20;1.63;;;;;;;8.73;100.00;101185.53;1020890;29;20335;-73
2022/12/20 01:46:35;;;;;;;2.42;1.73;;;;;;;8.72;100.00;101198.00;1016481;29;20300;-74
2022/12/20 01:47:07;;;;;;;2.70;2.10;;;;;;;8.67;100.00;101181.81;1019011;29;20310;-74
2022/12/20 01:47:38;;;;;;;3.50;1.90;;;;;;;8.68;100.00;101194.09;1011863;29;20728;-73
2022/12/20 01:48:10;;;;;;;3.47;2.08;;;;;;;8.70;100.00;101196.56;1016583;29;20806;-74
2022/12/20 01:48:45;;;;;;;3.03;1.80;;;;;;;8.66;100.00;101196.13;1016736;29;20806;-74
2022/12/20 01:49:18;;;;;;;2.30;2.10;;;;;;;8.68;100.00;101194.91;1023884;28;20306;-74
2022/12/20 01:49:51;;;;;;;2.67;2.20;;;;;;;8.70;100.00;101194.72;1027698;28;20290;-72
2022/12/20 01:50:24;;;;;;;5.43;2.17;;;;;;;8.76;100.00;101196.59;1027138;28;20306;-73
2022/12/20 01:50:55;;;;;;;2.22;1.80;;;;;;;8.82;100.00;101193.16;1026257;28;20309;-73
2022/12/20 01:51:29;;;;;;;9.57;5.00;;;;;;;8.78;100.00;101202.56;1024289;28;20298;-73
2022/12/20 01:52:03;;;;;;;7.53;2.03;;;;;;;8.80;100.00;101197.84;1021146;28;20307;-73
2022/12/20 01:52:41;;;;;;;3.47;2.03;;;;;;;8.81;100.00;101198.69;1019071;29;20455;-72
2022/12/20 01:53:14;;;;;;;4.30;2.40;;;;;;;8.88;100.00;101202.19;1015196;29;20794;-73
2022/12/20 01:53:47;;;;;;;5.78;2.20;;;;;;;8.86;100.00;101194.41;1013629;29;20420;-79
2022/12/20 01:54:41;;;;;;;2.42;1.77;;;;;;;8.92;100.00;101198.94;1015906;29;20335;-73
2022/12/20 01:55:16;;;;;;;4.43;2.63;;;;;;;8.87;100.00;101208.50;1021087;29;20300;-79
2022/12/20 01:55:48;;;;;;;3.78;2.03;;;;;;;8.87;100.00;101198.72;1023244;28;20357;-79
2022/12/20 01:56:20;;;;;;;1.70;1.60;;;;;;;8.93;100.00;101200.56;1027158;28;20294;-79
2022/12/20 01:56:56;;;;;;;2.13;1.83;;;;;;;8.90;100.00;101206.28;1019486;29;20312;-79
2022/12/20 01:57:39;;;;;;;3.88;2.47;;;;;;;8.86;100.00;101207.69;1020758;28;20296;-79
2022/12/20 01:58:12;;;;;;;4.88;1.88;;;;;;;8.89;100.00;101201.16;1015738;29;20391;-79
2022/12/20 01:58:45;;;;;;;3.13;2.25;;;;;;;8.84;100.00;101203.59;1011085;29;20309;-79
2022/12/20 01:59:16;;;;;;;3.28;1.95;;;;;;;8.84;100.00;101209.72;1013655;29;20356;-79
2022/12/20 01:59:49;;;;;;;3.88;1.88;;;;;;;8.84;100.00;101201.75;1017069;29;20414;-82
2022/12/20 02:00:20;;;;;;;3.00;2.03;;;;;;;8.83;100.00;101202.78;1020449;28;20307;-80
2022/12/20 02:00:52;;;;;;;2.60;2.10;;;;;;;8.83;100.00;101213.41;1027301;28;20390;-81
2022/12/20 02:01:24;;;;;;;2.50;1.77;;;;;;;8.93;100.00;101207.72;1027586;28;20417;-81
2022/12/20 02:01:58;;;;;;;3.92;1.80;;;;;;;8.91;100.00;101199.13;1023023;28;20310;-81
2022/12/20 02:02:31;;;;;;;3.88;2.17;;;;;;;8.97;100.00;101208.97;1015194;29;20304;-81
2022/12/20 02:03:08;;;;;;;4.38;2.17;;;;;;;8.98;100.00;101203.47;1015472;29;20871;-81
2022/12/20 02:03:41;;;;;;;6.40;3.50;;;;;;;8.92;100.00;101201.59;1019481;29;21018;-81
2022/12/20 02:04:13;;;;;;;5.85;2.47;;;;;;;8.90;100.00;101211.59;1015781;29;20720;-81
2022/12/20 02:04:44;;;;;;;1.98;1.80;;;;;;;8.87;100.00;101214.66;1015043;29;20312;-81
2022/12/20 02:05:18;;;;;;;3.97;2.30;;;;;;;8.87;100.00;101201.38;1016571;28;20746;-80
2022/12/20 02:05:50;;;;;;;3.78;2.13;;;;;;;8.84;100.00;101201.75;1016460;29;20440;-81
2022/12/20 02:06:25;;;;;;;2.53;1.80;;;;;;;8.81;100.00;101218.09;1019143;29;20300;-80
2022/12/20 02:06:56;;;;;;;1.95;1.80;;;;;;;8.86;100.00;101207.69;1023156;28;20306;-80
2022/12/20 02:07:30;;;;;;;5.95;2.60;;;;;;;8.87;100.00;101206.69;1027804;28;20657;-80
2022/12/20 02:08:02;;;;;;;2.55;1.85;;;;;;;8.80;100.00;101216.44;1026741;28;20302;-80
2022/12/20 02:08:34;;;;;;;4.00;1.80;;;;;;;8.80;100.00;101211.13;1023201;28;20664;-80
2022/12/20 02:09:06;;;;;;;4.03;2.30;;;;;;;8.80;100.00;101213.78;1019407;29;20671;-80
2022/12/20 02:09:38;;;;;;;3.50;2.03;;;;;;;8.79;100.00;101216.66;1010071;29;20804;-80
2022/12/20 02:10:10;;;;;;;2.58;2.05;;;;;;;8.80;100.00;101208.47;1018778;29;20303;-79
2022/12/20 02:10:45;;;;;;;7.13;1.98;;;;;;;8.87;100.00;101204.03;1020258;29;20832;-80
2022/12/20 02:11:40;;;;;;;3.53;2.38;;;;;;;8.80;100.00;101211.13;1022609;28;20299;-80
2022/12/20 02:12:14;;;;;;;2.35;1.90;;;;;;;8.77;100.00;101216.84;1015623;29;20296;-80
2022/12/20 02:12:47;;;;;;;3.15;2.05;;;;;;;8.68;100.00;101205.53;1019434;29;20390;-80
2022/12/20 02:13:29;;;;;;;5.45;1.48;;;;;;;8.68;100.00;101207.38;1027263;28;20353;-79
2022/12/20 02:14:12;;;;;;;2.42;1.98;;;;;;;8.64;100.00;101219.41;1023613;28;20295;-80
2022/12/20 02:15:04;;;;;;;2.45;2.22;;;;;;;8.65;100.00;101208.59;1023149;28;20330;-80
2022/12/20 02:15:45;;;;;;;4.05;2.20;;;;;;;8.68;100.00;101204.72;1020157;29;20334;-80
2022/12/20 02:16:23;;;;;;;3.72;1.98;;;;;;;8.78;100.00;101202.56;1019628;29;20303;-80
2022/12/20 02:17:15;;;;;;;3.13;2.00;;;;;;;8.77;100.00;101202.75;1015332;29;20051;-80
2022/12/20 02:18:07;;;;;;;2.40;2.00;;;;;;;8.72;100.00;101189.22;1015420;29;20377;-80
2022/12/20 02:18:46;;;;;;;2.00;1.90;;;;;;;8.67;100.00;101197.75;1019536;29;20310;-79
2022/12/20 02:19:38;;;;;;;3.33;2.30;;;;;;;8.74;100.00;101193.31;1018015;29;20300;-79
2022/12/20 02:20:39;;;;;;;2.05;1.85;;;;;;;8.62;100.00;101187.72;1023728;29;20290;-74
2022/12/20 02:21:16;;;;;;;5.45;2.63;;;;;;;8.62;100.00;101189.56;1022561;28;20361;-74
2022/12/20 02:22:17;;;;;;;5.20;2.08;;;;;;;8.56;100.00;101190.34;1017375;29;20288;-74
2022/12/20 02:23:13;;;;;;;4.90;2.15;;;;;;;8.55;100.00;101186.06;1019256;29;20717;-79
2022/12/20 02:23:45;;;;;;;3.22;2.10;;;;;;;8.59;100.00;101184.66;1026424;28;20704;-80
2022/12/20 02:25:03;;;;;;;7.65;2.40;;;;;;;8.61;100.00;101182.63;1027623;28;20294;-74
2022/12/20 02:25:43;;;;;;;4.75;2.00;;;;;;;8.58;100.00;101173.22;1026756;28;20316;-74
2022/12/20 02:26:24;;;;;;;2.30;2.08;;;;;;;8.61;100.00;101177.31;1027127;28;20668;-74
2022/12/20 02:27:18;;;;;;;;;;;;;;;8.58;100.00;101185.66;1025697;28;20047;-74
2022/12/20 02:28:25;;;;;;;2.78;2.17;;;;;;;8.55;100.00;101184.22;1020476;29;20070;-75
2022/12/20 02:29:34;;;;;;;2.22;2.03;;;;;;;8.66;100.00;101190.81;1019157;29;20322;-79
2022/12/20 02:30:08;;;;;;;4.75;2.50;;;;;;;8.60;100.00;101191.59;1026983;28;20313;-73
2022/12/20 02:30:45;;;;;;;2.53;2.20;;;;;;;8.59;100.00;101187.31;1022813;29;20315;-74
2022/12/20 02:31:19;;;;;;;2.50;2.25;;;;;;;8.60;100.00;101180.97;1015146;29;20667;-74
2022/12/20 02:32:15;;;;;;;5.28;2.25;;;;;;;8.56;100.00;101185.03;1013007;29;20320;-74
2022/12/20 02:32:52;;;;;;;2.00;1.90;;;;;;;8.55;100.00;101188.72;1016304;29;20334;-73
2022/12/20 02:33:27;;;;;;;2.53;2.33;;;;;;;8.60;100.00;101194.25;1022686;28;20307;-75
2022/12/20 02:33:59;;;;;;;3.53;2.30;;;;;;;8.56;100.00;101203.63;1019410;29;20295;-73
2022/12/20 02:34:32;;;;;;;2.78;1.95;;;;;;;8.61;100.00;101195.88;1013362;29;20814;-79
2022/12/20 02:35:08;;;;;;;3.00;1.70;;;;;;;8.66;100.00;101198.78;1011915;29;20385;-74
2022/12/20 02:35:41;;;;;;;7.30;2.72;;;;;;;8.57;100.00;101192.81;1008552;29;20325;-74
2022/12/20 02:36:16;;;;;;;3.80;2.47;;;;;;;8.54;100.00;101192.38;1015813;29;20697;-80
2022/12/20 02:36:50;;;;;;;2.78;2.35;;;;;;;8.61;100.00;101190.56;1014076;29;20312;-75
2022/12/20 02:37:24;;;;;;;2.70;2.28;;;;;;;8.60;100.00;101202.22;1019303;29;20378;-73
2022/12/20 02:37:58;;;;;;;2.67;2.45;;;;;;;8.58;100.00;101198.94;1018968;29;20342;-74
2022/12/20 02:38:33;;;;;;;3.33;2.90;;;;;;;8.56;100.00;101193.81;1015044;29;20448;-74
2022/12/20 02:39:04;;;;;;;3.63;2.22;;;;;;;8.50;100.00;101201.75;1019200;29;20303;-74
2022/12/20 02:39:39;;;;;;;2.50;2.10;;;;;;;8.55;100.00;101186.88;1019303;29;20838;-74
2022/12/20 02:40:11;;;;;;;6.38;2.60;;;;;;;8.60;100.00;101186.28;1020131;29;20312;-74
2022/12/20 02:40:43;;;;;;;4.43;2.15;;;;;;;8.53;100.00;101190.75;1015928;29;20707;-80